sensor_id;sensor_type;location;lat;lon;timestamp;temperature;humidity
22450;DHT22;11392;57.390;-2.468;2023-07-31T00:00:16;14.20;99.90
22450;DHT22;11392;57.390;-2.468;2023-07-31T00:02:43;14.10;99.90
22450;DHT22;11392;57.390;-2.468;2023-07-31T00:05:10;14.00;99.90
22450;DHT22;11392;57.390;-2.468;2023-07-31T00:07:37;13.90;99.90
22450;DHT22;11392;57.390;-2.468;2023-07-31T00:10:04;13.80;99.90
22450;DHT22;11392;57.390;-2.468;2023-07-31T00:12:31;13.80;99.90
22450;DHT22;11392;57.390;-2.468;2023-07-31T00:14:58;13.80;99.90
22450;DHT22;11392;57.390;-2.468;2023-07-31T00:17:25;13.70;99.90
22450;DHT22;11392;57.390;-2.468;2023-07-31T00:19:52;13.80;99.90
22450;DHT22;11392;57.390;-2.468;2023-07-31T00:22:19;13.60;99.90
22450;DHT22;11392;57.390;-2.468;2023-07-31T00:24:46;13.50;99.90
22450;DHT22;11392;57.390;-2.468;2023-07-31T00:27:13;13.40;99.90
22450;DHT22;11392;57.390;-2.468;2023-07-31T00:29:40;13.50;99.90
22450;DHT22;11392;57.390;-2.468;2023-07-31T00:32:07;13.40;99.90
22450;DHT22;11392;57.390;-2.468;2023-07-31T00:34:34;13.30;99.90
22450;DHT22;11392;57.390;-2.468;2023-07-31T00:37:01;13.40;99.90
22450;DHT22;11392;57.390;-2.468;2023-07-31T00:39:30;13.50;99.90
22450;DHT22;11392;57.390;-2.468;2023-07-31T00:41:57;13.40;99.90
22450;DHT22;11392;57.390;-2.468;2023-07-31T00:44:24;13.40;99.90
22450;DHT22;11392;57.390;-2.468;2023-07-31T00:46:51;13.40;99.90
22450;DHT22;11392;57.390;-2.468;2023-07-31T00:49:18;13.40;99.90
22450;DHT22;11392;57.390;-2.468;2023-07-31T00:51:45;13.50;99.90
22450;DHT22;11392;57.390;-2.468;2023-07-31T00:54:12;13.60;99.90
22450;DHT22;11392;57.390;-2.468;2023-07-31T00:56:41;13.70;99.90
22450;DHT22;11392;57.390;-2.468;2023-07-31T00:59:08;13.50;99.90
22450;DHT22;11392;57.390;-2.468;2023-07-31T01:01:35;13.60;99.90
22450;DHT22;11392;57.390;-2.468;2023-07-31T01:04:02;13.60;99.90
22450;DHT22;11392;57.390;-2.468;2023-07-31T01:06:47;13.80;99.90
22450;DHT22;11392;57.390;-2.468;2023-07-31T01:09:39;13.80;99.90
22450;DHT22;11392;57.390;-2.468;2023-07-31T01:12:09;13.80;99.90
22450;DHT22;11392;57.390;-2.468;2023-07-31T01:14:38;13.80;99.90
22450;DHT22;11392;57.390;-2.468;2023-07-31T01:17:05;13.80;99.90
22450;DHT22;11392;57.390;-2.468;2023-07-31T01:19:32;13.70;99.90
22450;DHT22;11392;57.390;-2.468;2023-07-31T01:22:24;13.60;99.90
22450;DHT22;11392;57.390;-2.468;2023-07-31T01:27:35;13.50;99.90
22450;DHT22;11392;57.390;-2.468;2023-07-31T01:30:20;13.50;99.90
22450;DHT22;11392;57.390;-2.468;2023-07-31T01:32:51;13.40;99.90
22450;DHT22;11392;57.390;-2.468;2023-07-31T01:35:19;13.30;99.90
22450;DHT22;11392;57.390;-2.468;2023-07-31T01:37:46;13.20;99.90
22450;DHT22;11392;57.390;-2.468;2023-07-31T01:40:13;13.20;99.90
22450;DHT22;11392;57.390;-2.468;2023-07-31T01:42:40;13.10;99.90
22450;DHT22;11392;57.390;-2.468;2023-07-31T01:45:08;13.10;99.90
22450;DHT22;11392;57.390;-2.468;2023-07-31T01:47:35;13.00;99.90
22450;DHT22;11392;57.390;-2.468;2023-07-31T01:50:02;12.90;99.90
22450;DHT22;11392;57.390;-2.468;2023-07-31T01:52:29;12.90;99.90
22450;DHT22;11392;57.390;-2.468;2023-07-31T01:54:56;12.90;99.90
22450;DHT22;11392;57.390;-2.468;2023-07-31T01:57:23;12.80;99.90
22450;DHT22;11392;57.390;-2.468;2023-07-31T01:59:50;12.80;99.90
22450;DHT22;11392;57.390;-2.468;2023-07-31T02:02:20;12.80;99.90
22450;DHT22;11392;57.390;-2.468;2023-07-31T02:04:47;12.70;99.90
22450;DHT22;11392;57.390;-2.468;2023-07-31T02:07:14;12.70;99.90
22450;DHT22;11392;57.390;-2.468;2023-07-31T02:09:41;12.70;99.90
22450;DHT22;11392;57.390;-2.468;2023-07-31T02:12:08;12.70;99.90
22450;DHT22;11392;57.390;-2.468;2023-07-31T02:14:35;12.80;99.90
22450;DHT22;11392;57.390;-2.468;2023-07-31T02:17:02;12.80;99.90
22450;DHT22;11392;57.390;-2.468;2023-07-31T02:19:29;12.80;99.90
22450;DHT22;11392;57.390;-2.468;2023-07-31T02:21:56;12.90;99.90
22450;DHT22;11392;57.390;-2.468;2023-07-31T02:24:24;12.80;99.90
22450;DHT22;11392;57.390;-2.468;2023-07-31T02:26:51;12.80;99.90
22450;DHT22;11392;57.390;-2.468;2023-07-31T02:29:18;12.70;99.90
22450;DHT22;11392;57.390;-2.468;2023-07-31T02:31:45;12.60;99.90
22450;DHT22;11392;57.390;-2.468;2023-07-31T02:34:12;12.40;99.90
22450;DHT22;11392;57.390;-2.468;2023-07-31T02:36:39;12.40;99.90
22450;DHT22;11392;57.390;-2.468;2023-07-31T02:39:06;12.50;99.90
22450;DHT22;11392;57.390;-2.468;2023-07-31T02:41:33;12.40;99.90
22450;DHT22;11392;57.390;-2.468;2023-07-31T02:44:00;12.40;99.90
22450;DHT22;11392;57.390;-2.468;2023-07-31T02:46:27;12.40;99.90
22450;DHT22;11392;57.390;-2.468;2023-07-31T02:48:54;12.40;99.90
22450;DHT22;11392;57.390;-2.468;2023-07-31T02:51:21;12.50;99.90
22450;DHT22;11392;57.390;-2.468;2023-07-31T02:53:48;12.40;99.90
22450;DHT22;11392;57.390;-2.468;2023-07-31T02:56:16;12.40;99.90
22450;DHT22;11392;57.390;-2.468;2023-07-31T02:58:43;12.30;99.90
22450;DHT22;11392;57.390;-2.468;2023-07-31T03:01:10;12.20;99.90
22450;DHT22;11392;57.390;-2.468;2023-07-31T03:03:37;12.30;99.90
22450;DHT22;11392;57.390;-2.468;2023-07-31T03:06:04;12.40;99.90
22450;DHT22;11392;57.390;-2.468;2023-07-31T03:08:31;12.50;99.90
22450;DHT22;11392;57.390;-2.468;2023-07-31T03:10:58;12.50;99.90
22450;DHT22;11392;57.390;-2.468;2023-07-31T03:13:25;12.50;99.90
22450;DHT22;11392;57.390;-2.468;2023-07-31T03:15:52;12.50;99.90
22450;DHT22;11392;57.390;-2.468;2023-07-31T03:18:19;12.40;99.90
22450;DHT22;11392;57.390;-2.468;2023-07-31T03:20:46;12.30;99.90
22450;DHT22;11392;57.390;-2.468;2023-07-31T03:23:13;12.20;99.90
22450;DHT22;11392;57.390;-2.468;2023-07-31T03:25:55;12.20;99.90
22450;DHT22;11392;57.390;-2.468;2023-07-31T03:28:23;12.20;99.90
22450;DHT22;11392;57.390;-2.468;2023-07-31T03:30:51;12.20;99.90
22450;DHT22;11392;57.390;-2.468;2023-07-31T03:33:18;12.30;99.90
22450;DHT22;11392;57.390;-2.468;2023-07-31T03:35:46;12.30;99.90
22450;DHT22;11392;57.390;-2.468;2023-07-31T03:38:13;12.20;99.90
22450;DHT22;11392;57.390;-2.468;2023-07-31T03:40:40;12.00;99.90
22450;DHT22;11392;57.390;-2.468;2023-07-31T03:43:07;12.10;99.90
22450;DHT22;11392;57.390;-2.468;2023-07-31T03:45:34;12.10;99.90
22450;DHT22;11392;57.390;-2.468;2023-07-31T03:48:01;12.00;99.90
22450;DHT22;11392;57.390;-2.468;2023-07-31T03:50:29;11.90;99.90
22450;DHT22;11392;57.390;-2.468;2023-07-31T03:52:56;11.90;99.90
22450;DHT22;11392;57.390;-2.468;2023-07-31T03:55:23;11.80;99.90
22450;DHT22;11392;57.390;-2.468;2023-07-31T03:57:50;11.80;99.90
22450;DHT22;11392;57.390;-2.468;2023-07-31T04:00:17;11.80;99.90
22450;DHT22;11392;57.390;-2.468;2023-07-31T04:02:44;11.80;99.90
22450;DHT22;11392;57.390;-2.468;2023-07-31T04:05:11;11.70;99.90
22450;DHT22;11392;57.390;-2.468;2023-07-31T04:07:38;11.70;99.90
22450;DHT22;11392;57.390;-2.468;2023-07-31T04:10:05;11.70;99.90
22450;DHT22;11392;57.390;-2.468;2023-07-31T04:12:32;11.70;99.90
22450;DHT22;11392;57.390;-2.468;2023-07-31T04:14:59;11.60;99.90
22450;DHT22;11392;57.390;-2.468;2023-07-31T04:17:26;11.70;99.90
22450;DHT22;11392;57.390;-2.468;2023-07-31T04:19:53;11.70;99.90
22450;DHT22;11392;57.390;-2.468;2023-07-31T04:22:20;11.70;99.90
22450;DHT22;11392;57.390;-2.468;2023-07-31T04:24:47;11.50;99.90
22450;DHT22;11392;57.390;-2.468;2023-07-31T04:27:14;11.30;99.90
22450;DHT22;11392;57.390;-2.468;2023-07-31T04:29:41;11.40;99.90
22450;DHT22;11392;57.390;-2.468;2023-07-31T04:32:09;11.70;99.90
22450;DHT22;11392;57.390;-2.468;2023-07-31T04:34:36;11.70;99.90
22450;DHT22;11392;57.390;-2.468;2023-07-31T04:37:03;11.80;99.90
22450;DHT22;11392;57.390;-2.468;2023-07-31T04:39:30;11.90;99.90
22450;DHT22;11392;57.390;-2.468;2023-07-31T04:41:57;11.90;99.90
22450;DHT22;11392;57.390;-2.468;2023-07-31T04:44:24;11.90;99.90
22450;DHT22;11392;57.390;-2.468;2023-07-31T04:46:51;11.90;99.90
22450;DHT22;11392;57.390;-2.468;2023-07-31T04:49:18;11.90;99.90
22450;DHT22;11392;57.390;-2.468;2023-07-31T04:51:45;11.90;99.90
22450;DHT22;11392;57.390;-2.468;2023-07-31T04:54:12;11.90;99.90
22450;DHT22;11392;57.390;-2.468;2023-07-31T04:56:41;11.90;99.90
22450;DHT22;11392;57.390;-2.468;2023-07-31T04:59:08;12.10;99.90
22450;DHT22;11392;57.390;-2.468;2023-07-31T05:01:35;12.20;99.90
22450;DHT22;11392;57.390;-2.468;2023-07-31T05:04:02;12.30;99.90
22450;DHT22;11392;57.390;-2.468;2023-07-31T05:06:30;12.40;99.90
22450;DHT22;11392;57.390;-2.468;2023-07-31T05:08:57;12.40;99.90
22450;DHT22;11392;57.390;-2.468;2023-07-31T05:11:24;12.50;99.90
22450;DHT22;11392;57.390;-2.468;2023-07-31T05:13:51;12.60;99.90
22450;DHT22;11392;57.390;-2.468;2023-07-31T05:16:18;12.60;99.90
22450;DHT22;11392;57.390;-2.468;2023-07-31T05:18:45;12.70;99.90
22450;DHT22;11392;57.390;-2.468;2023-07-31T05:21:11;12.70;99.90
22450;DHT22;11392;57.390;-2.468;2023-07-31T05:23:38;12.70;99.90
22450;DHT22;11392;57.390;-2.468;2023-07-31T05:26:06;12.70;99.90
22450;DHT22;11392;57.390;-2.468;2023-07-31T05:28:34;12.60;99.90
22450;DHT22;11392;57.390;-2.468;2023-07-31T05:31:05;12.70;99.90
22450;DHT22;11392;57.390;-2.468;2023-07-31T05:33:33;12.80;99.90
22450;DHT22;11392;57.390;-2.468;2023-07-31T05:36:00;12.80;99.90
22450;DHT22;11392;57.390;-2.468;2023-07-31T05:38:27;12.90;99.90
22450;DHT22;11392;57.390;-2.468;2023-07-31T05:40:54;12.90;99.90
22450;DHT22;11392;57.390;-2.468;2023-07-31T05:43:21;13.00;99.90
22450;DHT22;11392;57.390;-2.468;2023-07-31T05:45:48;13.10;99.90
22450;DHT22;11392;57.390;-2.468;2023-07-31T05:48:15;13.00;99.90
22450;DHT22;11392;57.390;-2.468;2023-07-31T05:50:43;13.10;99.90
22450;DHT22;11392;57.390;-2.468;2023-07-31T05:53:10;13.00;99.90
22450;DHT22;11392;57.390;-2.468;2023-07-31T05:55:38;12.90;99.90
22450;DHT22;11392;57.390;-2.468;2023-07-31T05:58:04;13.00;99.90
22450;DHT22;11392;57.390;-2.468;2023-07-31T06:00:31;13.10;99.90
22450;DHT22;11392;57.390;-2.468;2023-07-31T06:02:58;13.10;99.90
22450;DHT22;11392;57.390;-2.468;2023-07-31T06:05:25;13.20;99.90
22450;DHT22;11392;57.390;-2.468;2023-07-31T06:07:55;13.30;99.90
22450;DHT22;11392;57.390;-2.468;2023-07-31T06:10:22;13.30;99.90
22450;DHT22;11392;57.390;-2.468;2023-07-31T06:12:49;13.30;99.90
22450;DHT22;11392;57.390;-2.468;2023-07-31T06:15:16;13.20;99.90
22450;DHT22;11392;57.390;-2.468;2023-07-31T06:17:45;13.10;99.90
22450;DHT22;11392;57.390;-2.468;2023-07-31T06:20:13;13.30;99.90
22450;DHT22;11392;57.390;-2.468;2023-07-31T06:22:40;13.30;99.90
22450;DHT22;11392;57.390;-2.468;2023-07-31T06:25:07;13.40;99.90
22450;DHT22;11392;57.390;-2.468;2023-07-31T06:27:36;13.40;99.90
22450;DHT22;11392;57.390;-2.468;2023-07-31T06:30:04;13.50;99.90
22450;DHT22;11392;57.390;-2.468;2023-07-31T06:32:31;13.50;99.90
22450;DHT22;11392;57.390;-2.468;2023-07-31T06:34:58;13.60;99.90
22450;DHT22;11392;57.390;-2.468;2023-07-31T06:37:26;13.70;99.90
22450;DHT22;11392;57.390;-2.468;2023-07-31T06:39:53;13.80;99.90
22450;DHT22;11392;57.390;-2.468;2023-07-31T06:42:20;13.80;99.90
22450;DHT22;11392;57.390;-2.468;2023-07-31T06:44:47;13.90;99.90
22450;DHT22;11392;57.390;-2.468;2023-07-31T06:47:14;14.00;99.90
22450;DHT22;11392;57.390;-2.468;2023-07-31T06:49:41;14.10;99.90
22450;DHT22;11392;57.390;-2.468;2023-07-31T06:52:08;14.30;99.90
22450;DHT22;11392;57.390;-2.468;2023-07-31T06:54:36;14.40;99.90
22450;DHT22;11392;57.390;-2.468;2023-07-31T06:57:03;14.60;99.90
22450;DHT22;11392;57.390;-2.468;2023-07-31T06:59:30;14.70;99.90
22450;DHT22;11392;57.390;-2.468;2023-07-31T07:01:57;14.80;99.90
22450;DHT22;11392;57.390;-2.468;2023-07-31T07:04:24;14.90;99.90
22450;DHT22;11392;57.390;-2.468;2023-07-31T07:06:51;14.90;99.90
22450;DHT22;11392;57.390;-2.468;2023-07-31T07:09:18;14.90;99.90
22450;DHT22;11392;57.390;-2.468;2023-07-31T07:11:46;15.00;99.90
22450;DHT22;11392;57.390;-2.468;2023-07-31T07:14:13;15.10;99.90
22450;DHT22;11392;57.390;-2.468;2023-07-31T07:16:40;15.30;99.90
22450;DHT22;11392;57.390;-2.468;2023-07-31T07:19:08;15.30;99.90
22450;DHT22;11392;57.390;-2.468;2023-07-31T07:21:35;15.30;99.90
22450;DHT22;11392;57.390;-2.468;2023-07-31T07:24:02;15.30;99.90
22450;DHT22;11392;57.390;-2.468;2023-07-31T07:26:29;15.40;99.90
22450;DHT22;11392;57.390;-2.468;2023-07-31T07:28:56;15.60;99.90
22450;DHT22;11392;57.390;-2.468;2023-07-31T07:31:27;15.60;99.90
22450;DHT22;11392;57.390;-2.468;2023-07-31T07:33:54;15.70;99.90
22450;DHT22;11392;57.390;-2.468;2023-07-31T07:36:22;15.80;99.90
22450;DHT22;11392;57.390;-2.468;2023-07-31T07:38:49;15.90;99.90
22450;DHT22;11392;57.390;-2.468;2023-07-31T07:41:16;16.00;99.90
22450;DHT22;11392;57.390;-2.468;2023-07-31T07:43:43;15.90;99.90
22450;DHT22;11392;57.390;-2.468;2023-07-31T07:46:10;15.90;99.90
22450;DHT22;11392;57.390;-2.468;2023-07-31T07:48:38;15.80;99.90
22450;DHT22;11392;57.390;-2.468;2023-07-31T07:51:05;15.70;99.90
22450;DHT22;11392;57.390;-2.468;2023-07-31T07:53:32;15.80;99.90
22450;DHT22;11392;57.390;-2.468;2023-07-31T07:55:59;15.80;99.90
22450;DHT22;11392;57.390;-2.468;2023-07-31T07:58:26;15.70;99.90
22450;DHT22;11392;57.390;-2.468;2023-07-31T08:00:53;15.80;99.90
22450;DHT22;11392;57.390;-2.468;2023-07-31T08:03:20;15.80;99.90
22450;DHT22;11392;57.390;-2.468;2023-07-31T08:05:47;15.80;99.90
22450;DHT22;11392;57.390;-2.468;2023-07-31T08:08:15;15.90;99.90
22450;DHT22;11392;57.390;-2.468;2023-07-31T08:10:44;15.90;99.90
22450;DHT22;11392;57.390;-2.468;2023-07-31T08:13:12;16.10;99.90
22450;DHT22;11392;57.390;-2.468;2023-07-31T08:15:41;16.20;99.90
22450;DHT22;11392;57.390;-2.468;2023-07-31T08:18:09;16.30;99.90
22450;DHT22;11392;57.390;-2.468;2023-07-31T08:20:36;16.70;99.90
22450;DHT22;11392;57.390;-2.468;2023-07-31T08:23:04;17.00;99.90
22450;DHT22;11392;57.390;-2.468;2023-07-31T08:25:35;17.50;99.90
22450;DHT22;11392;57.390;-2.468;2023-07-31T08:28:03;17.80;99.90
22450;DHT22;11392;57.390;-2.468;2023-07-31T08:30:30;18.30;99.90
22450;DHT22;11392;57.390;-2.468;2023-07-31T08:32:57;18.90;99.90
22450;DHT22;11392;57.390;-2.468;2023-07-31T08:35:25;19.10;99.90
22450;DHT22;11392;57.390;-2.468;2023-07-31T08:37:52;18.90;99.90
22450;DHT22;11392;57.390;-2.468;2023-07-31T08:40:19;18.70;99.90
22450;DHT22;11392;57.390;-2.468;2023-07-31T08:42:53;18.80;99.90
22450;DHT22;11392;57.390;-2.468;2023-07-31T08:45:21;19.00;99.90
22450;DHT22;11392;57.390;-2.468;2023-07-31T08:47:50;18.70;99.90
22450;DHT22;11392;57.390;-2.468;2023-07-31T08:50:20;18.60;99.90
22450;DHT22;11392;57.390;-2.468;2023-07-31T08:52:50;18.70;99.90
22450;DHT22;11392;57.390;-2.468;2023-07-31T08:55:17;18.70;99.90
22450;DHT22;11392;57.390;-2.468;2023-07-31T08:57:51;18.50;99.90
22450;DHT22;11392;57.390;-2.468;2023-07-31T09:00:22;18.50;99.90
22450;DHT22;11392;57.390;-2.468;2023-07-31T09:03:01;18.60;99.90
22450;DHT22;11392;57.390;-2.468;2023-07-31T09:05:31;18.90;99.90
22450;DHT22;11392;57.390;-2.468;2023-07-31T09:07:58;19.30;99.90
22450;DHT22;11392;57.390;-2.468;2023-07-31T09:10:26;19.20;99.90
22450;DHT22;11392;57.390;-2.468;2023-07-31T09:12:54;19.50;99.90
22450;DHT22;11392;57.390;-2.468;2023-07-31T09:15:23;19.70;99.90
22450;DHT22;11392;57.390;-2.468;2023-07-31T09:18:04;19.40;99.90
22450;DHT22;11392;57.390;-2.468;2023-07-31T09:20:32;19.30;99.90
22450;DHT22;11392;57.390;-2.468;2023-07-31T09:23:13;19.20;99.90
22450;DHT22;11392;57.390;-2.468;2023-07-31T09:25:43;19.50;99.90
22450;DHT22;11392;57.390;-2.468;2023-07-31T09:28:11;19.80;99.90
22450;DHT22;11392;57.390;-2.468;2023-07-31T09:30:47;19.70;99.90
22450;DHT22;11392;57.390;-2.468;2023-07-31T09:33:16;19.80;99.90
22450;DHT22;11392;57.390;-2.468;2023-07-31T09:35:43;20.20;99.90
22450;DHT22;11392;57.390;-2.468;2023-07-31T09:38:12;20.20;99.90
22450;DHT22;11392;57.390;-2.468;2023-07-31T09:40:44;20.20;99.90
22450;DHT22;11392;57.390;-2.468;2023-07-31T09:43:14;20.40;99.90
22450;DHT22;11392;57.390;-2.468;2023-07-31T09:45:45;20.40;99.90
22450;DHT22;11392;57.390;-2.468;2023-07-31T09:48:23;20.40;99.90
22450;DHT22;11392;57.390;-2.468;2023-07-31T09:50:53;20.20;99.90
22450;DHT22;11392;57.390;-2.468;2023-07-31T09:53:28;20.10;99.90
22450;DHT22;11392;57.390;-2.468;2023-07-31T09:55:58;20.30;99.90
22450;DHT22;11392;57.390;-2.468;2023-07-31T09:58:28;20.50;99.90
22450;DHT22;11392;57.390;-2.468;2023-07-31T10:00:57;20.80;99.90
22450;DHT22;11392;57.390;-2.468;2023-07-31T10:03:26;21.20;99.90
22450;DHT22;11392;57.390;-2.468;2023-07-31T10:05:55;21.70;99.90
22450;DHT22;11392;57.390;-2.468;2023-07-31T10:08:28;21.90;99.90
22450;DHT22;11392;57.390;-2.468;2023-07-31T10:10:59;21.90;99.90
22450;DHT22;11392;57.390;-2.468;2023-07-31T10:13:28;22.00;99.90
22450;DHT22;11392;57.390;-2.468;2023-07-31T10:15:59;22.30;99.90
22450;DHT22;11392;57.390;-2.468;2023-07-31T10:18:26;22.90;99.90
22450;DHT22;11392;57.390;-2.468;2023-07-31T10:20:55;23.20;99.90
22450;DHT22;11392;57.390;-2.468;2023-07-31T10:23:23;23.30;99.90
22450;DHT22;11392;57.390;-2.468;2023-07-31T10:25:53;23.00;99.90
22450;DHT22;11392;57.390;-2.468;2023-07-31T10:28:21;23.30;99.90
22450;DHT22;11392;57.390;-2.468;2023-07-31T10:30:49;23.30;99.90
22450;DHT22;11392;57.390;-2.468;2023-07-31T10:33:18;23.30;99.90
22450;DHT22;11392;57.390;-2.468;2023-07-31T10:35:47;23.30;99.90
22450;DHT22;11392;57.390;-2.468;2023-07-31T10:38:15;23.00;99.90
22450;DHT22;11392;57.390;-2.468;2023-07-31T10:40:42;22.90;99.90
22450;DHT22;11392;57.390;-2.468;2023-07-31T10:43:24;22.80;99.90
22450;DHT22;11392;57.390;-2.468;2023-07-31T10:45:53;22.20;99.90
22450;DHT22;11392;57.390;-2.468;2023-07-31T10:48:20;22.10;99.90
22450;DHT22;11392;57.390;-2.468;2023-07-31T10:50:56;22.30;99.90
22450;DHT22;11392;57.390;-2.468;2023-07-31T10:53:31;22.00;99.90
22450;DHT22;11392;57.390;-2.468;2023-07-31T10:56:00;21.80;99.90
22450;DHT22;11392;57.390;-2.468;2023-07-31T10:58:27;21.50;99.90
22450;DHT22;11392;57.390;-2.468;2023-07-31T11:00:59;21.60;99.90
22450;DHT22;11392;57.390;-2.468;2023-07-31T11:06:07;21.60;99.90
22450;DHT22;11392;57.390;-2.468;2023-07-31T11:08:41;21.50;99.90
22450;DHT22;11392;57.390;-2.468;2023-07-31T11:11:10;21.50;99.90
22450;DHT22;11392;57.390;-2.468;2023-07-31T11:13:47;21.20;99.90
22450;DHT22;11392;57.390;-2.468;2023-07-31T11:16:19;21.20;99.90
22450;DHT22;11392;57.390;-2.468;2023-07-31T11:18:47;20.90;99.90
22450;DHT22;11392;57.390;-2.468;2023-07-31T11:21:17;20.80;99.90
22450;DHT22;11392;57.390;-2.468;2023-07-31T11:23:49;20.60;99.90
22450;DHT22;11392;57.390;-2.468;2023-07-31T11:26:17;20.40;99.90
22450;DHT22;11392;57.390;-2.468;2023-07-31T11:28:47;20.40;99.90
22450;DHT22;11392;57.390;-2.468;2023-07-31T11:31:14;20.20;99.90
22450;DHT22;11392;57.390;-2.468;2023-07-31T11:33:42;20.00;99.90
22450;DHT22;11392;57.390;-2.468;2023-07-31T11:36:19;19.70;99.90
22450;DHT22;11392;57.390;-2.468;2023-07-31T11:38:47;19.60;99.90
22450;DHT22;11392;57.390;-2.468;2023-07-31T11:41:15;19.60;99.90
22450;DHT22;11392;57.390;-2.468;2023-07-31T11:43:44;19.30;99.90
22450;DHT22;11392;57.390;-2.468;2023-07-31T11:46:13;19.30;99.90
22450;DHT22;11392;57.390;-2.468;2023-07-31T11:48:42;19.10;99.90
22450;DHT22;11392;57.390;-2.468;2023-07-31T11:51:10;19.10;99.90
22450;DHT22;11392;57.390;-2.468;2023-07-31T11:53:51;19.00;99.90
22450;DHT22;11392;57.390;-2.468;2023-07-31T11:56:19;19.10;99.90
22450;DHT22;11392;57.390;-2.468;2023-07-31T11:58:50;18.80;99.90
22450;DHT22;11392;57.390;-2.468;2023-07-31T12:01:22;18.80;99.90
22450;DHT22;11392;57.390;-2.468;2023-07-31T12:03:50;18.70;99.90
22450;DHT22;11392;57.390;-2.468;2023-07-31T12:06:18;18.50;99.90
22450;DHT22;11392;57.390;-2.468;2023-07-31T12:08:47;18.50;99.90
22450;DHT22;11392;57.390;-2.468;2023-07-31T12:11:16;18.30;99.90
22450;DHT22;11392;57.390;-2.468;2023-07-31T12:13:44;18.40;99.90
22450;DHT22;11392;57.390;-2.468;2023-07-31T12:16:12;18.40;99.90
22450;DHT22;11392;57.390;-2.468;2023-07-31T12:18:39;18.40;99.90
22450;DHT22;11392;57.390;-2.468;2023-07-31T12:21:08;18.30;99.90
22450;DHT22;11392;57.390;-2.468;2023-07-31T12:23:36;18.30;99.90
22450;DHT22;11392;57.390;-2.468;2023-07-31T12:26:06;18.30;99.90
22450;DHT22;11392;57.390;-2.468;2023-07-31T12:28:47;18.20;99.90
22450;DHT22;11392;57.390;-2.468;2023-07-31T12:31:16;18.30;99.90
22450;DHT22;11392;57.390;-2.468;2023-07-31T12:33:44;18.30;99.90
22450;DHT22;11392;57.390;-2.468;2023-07-31T12:36:14;18.20;99.90
22450;DHT22;11392;57.390;-2.468;2023-07-31T12:38:42;18.10;99.90
22450;DHT22;11392;57.390;-2.468;2023-07-31T12:41:09;18.20;99.90
22450;DHT22;11392;57.390;-2.468;2023-07-31T12:43:38;18.30;99.90
22450;DHT22;11392;57.390;-2.468;2023-07-31T12:46:05;18.30;99.90
22450;DHT22;11392;57.390;-2.468;2023-07-31T12:48:34;18.20;99.90
22450;DHT22;11392;57.390;-2.468;2023-07-31T12:51:02;18.10;99.90
22450;DHT22;11392;57.390;-2.468;2023-07-31T12:53:29;18.00;99.90
22450;DHT22;11392;57.390;-2.468;2023-07-31T12:55:56;18.10;99.90
22450;DHT22;11392;57.390;-2.468;2023-07-31T12:58:24;18.00;99.90
22450;DHT22;11392;57.390;-2.468;2023-07-31T13:00:51;17.90;99.90
22450;DHT22;11392;57.390;-2.468;2023-07-31T13:03:18;17.90;99.90
22450;DHT22;11392;57.390;-2.468;2023-07-31T13:05:45;18.00;99.90
22450;DHT22;11392;57.390;-2.468;2023-07-31T13:08:12;17.90;99.90
22450;DHT22;11392;57.390;-2.468;2023-07-31T13:10:39;17.70;99.90
22450;DHT22;11392;57.390;-2.468;2023-07-31T13:13:06;17.60;99.90
22450;DHT22;11392;57.390;-2.468;2023-07-31T13:15:33;17.50;99.90
22450;DHT22;11392;57.390;-2.468;2023-07-31T13:18:00;17.60;99.90
22450;DHT22;11392;57.390;-2.468;2023-07-31T13:20:28;17.70;99.90
22450;DHT22;11392;57.390;-2.468;2023-07-31T13:22:55;17.60;99.90
22450;DHT22;11392;57.390;-2.468;2023-07-31T13:25:22;17.30;99.90
22450;DHT22;11392;57.390;-2.468;2023-07-31T13:27:49;17.20;99.90
22450;DHT22;11392;57.390;-2.468;2023-07-31T13:30:16;17.10;99.90
22450;DHT22;11392;57.390;-2.468;2023-07-31T13:32:43;17.00;99.90
22450;DHT22;11392;57.390;-2.468;2023-07-31T13:35:10;16.80;99.90
22450;DHT22;11392;57.390;-2.468;2023-07-31T13:37:38;16.80;99.90
22450;DHT22;11392;57.390;-2.468;2023-07-31T13:40:06;16.70;99.90
22450;DHT22;11392;57.390;-2.468;2023-07-31T13:42:33;16.70;99.90
22450;DHT22;11392;57.390;-2.468;2023-07-31T13:45:00;16.70;99.90
22450;DHT22;11392;57.390;-2.468;2023-07-31T13:47:32;16.80;99.90
22450;DHT22;11392;57.390;-2.468;2023-07-31T13:50:00;16.70;99.90
22450;DHT22;11392;57.390;-2.468;2023-07-31T13:52:27;16.70;99.90
22450;DHT22;11392;57.390;-2.468;2023-07-31T13:54:54;16.60;99.90
22450;DHT22;11392;57.390;-2.468;2023-07-31T13:57:21;16.60;99.90
22450;DHT22;11392;57.390;-2.468;2023-07-31T13:59:50;16.60;99.90
22450;DHT22;11392;57.390;-2.468;2023-07-31T14:02:17;16.40;99.90
22450;DHT22;11392;57.390;-2.468;2023-07-31T14:04:44;16.20;99.90
22450;DHT22;11392;57.390;-2.468;2023-07-31T14:07:11;16.20;99.90
22450;DHT22;11392;57.390;-2.468;2023-07-31T14:09:38;16.10;99.90
22450;DHT22;11392;57.390;-2.468;2023-07-31T14:12:06;16.10;99.90
22450;DHT22;11392;57.390;-2.468;2023-07-31T14:14:33;16.10;99.90
22450;DHT22;11392;57.390;-2.468;2023-07-31T14:17:01;16.10;99.90
22450;DHT22;11392;57.390;-2.468;2023-07-31T14:19:29;16.20;99.90
22450;DHT22;11392;57.390;-2.468;2023-07-31T14:21:58;16.10;99.90
22450;DHT22;11392;57.390;-2.468;2023-07-31T14:24:37;16.10;99.90
22450;DHT22;11392;57.390;-2.468;2023-07-31T14:27:04;16.00;99.90
22450;DHT22;11392;57.390;-2.468;2023-07-31T14:29:31;16.00;99.90
22450;DHT22;11392;57.390;-2.468;2023-07-31T14:31:58;16.00;99.90
22450;DHT22;11392;57.390;-2.468;2023-07-31T14:34:27;16.00;99.90
22450;DHT22;11392;57.390;-2.468;2023-07-31T14:36:54;16.00;99.90
22450;DHT22;11392;57.390;-2.468;2023-07-31T14:39:21;15.90;99.90
22450;DHT22;11392;57.390;-2.468;2023-07-31T14:41:48;15.90;99.90
22450;DHT22;11392;57.390;-2.468;2023-07-31T14:44:15;15.90;99.90
22450;DHT22;11392;57.390;-2.468;2023-07-31T14:46:42;15.90;99.90
22450;DHT22;11392;57.390;-2.468;2023-07-31T14:49:10;15.90;99.90
22450;DHT22;11392;57.390;-2.468;2023-07-31T14:51:37;15.90;99.90
22450;DHT22;11392;57.390;-2.468;2023-07-31T14:54:04;15.90;99.90
22450;DHT22;11392;57.390;-2.468;2023-07-31T14:56:31;15.80;99.90
22450;DHT22;11392;57.390;-2.468;2023-07-31T14:58:58;15.80;99.90
22450;DHT22;11392;57.390;-2.468;2023-07-31T15:01:25;15.80;99.90
22450;DHT22;11392;57.390;-2.468;2023-07-31T15:03:52;15.70;99.90
22450;DHT22;11392;57.390;-2.468;2023-07-31T15:06:19;15.70;99.90
22450;DHT22;11392;57.390;-2.468;2023-07-31T15:08:46;15.70;99.90
22450;DHT22;11392;57.390;-2.468;2023-07-31T15:11:14;15.80;99.90
22450;DHT22;11392;57.390;-2.468;2023-07-31T15:13:43;15.80;99.90
22450;DHT22;11392;57.390;-2.468;2023-07-31T15:16:10;15.80;99.90
22450;DHT22;11392;57.390;-2.468;2023-07-31T15:18:37;15.80;99.90
22450;DHT22;11392;57.390;-2.468;2023-07-31T15:21:04;15.90;99.90
22450;DHT22;11392;57.390;-2.468;2023-07-31T15:23:33;15.80;99.90
22450;DHT22;11392;57.390;-2.468;2023-07-31T15:26:00;15.90;99.90